CDT,Max TemperatureF,Mean TemperatureF,Min TemperatureF,Max Dew PointF,MeanDew PointF,Min DewpointF,Max Humidity, Mean Humidity, Min Humidity, Max Sea Level PressureIn, Mean Sea Level PressureIn, Min Sea Level PressureIn, Max VisibilityMiles, Mean VisibilityMiles, Min VisibilityMiles, Max Wind SpeedMPH, Mean Wind SpeedMPH, Max Gust SpeedMPH,PrecipitationIn, CloudCover, Events, WindDirDegrees
2013-4-1,80,65,50,53,51,48,93,63,33,30.08,30.02,29.96,10,10,8,12,4,14,0.00,0,,140
2013-4-2,77,63,48,63,56,43,93,72,50,30.05,29.99,29.94,10,9,2,25,10,32,0.40,6,Rain-Thunderstorm,107
2013-4-3,51,48,44,45,42,39,89,80,71,30.14,30.06,29.97,10,10,6,22,11,28,0.02,8,Rain,47
2013-4-4,49,46,42,41,40,39,89,80,71,30.19,30.12,30.09,10,10,7,18,7,22,0.03,7,Rain,344
2013-4-5,70,55,40,48,42,38,89,61,33,30.25,30.17,30.08,10,10,9,9,3,13,0.00,0,,270
2013-4-6,77,65,52,54,49,45,83,60,36,30.06,29.98,29.88,10,10,5,24,13,30,0.00,2,,182
2013-4-7,75,67,59,58,56,55,90,74,57,29.98,29.90,29.81,10,10,10,23,14,32,0.00,7,,172
2013-4-8,80,72,64,61,59,56,87,70,52,29.84,29.79,29.73,10,10,10,23,15,30,0.00,5,,177
2013-4-9,86,77,67,66,62,59,87,65,42,29.78,29.74,29.68,10,10,9,25,15,35,T,5,,160
2013-4-10,74,58,42,67,50,37,92,83,73,29.92,29.83,29.71,10,10,4,23,12,33,0.37,8,Rain,319
2013-4-11,63,51,38,40,36,31,83,60,36,29.99,29.90,29.82,10,10,10,20,7,29,T,2,,329
2013-4-12,77,59,41,45,41,38,86,56,25,30.02,29.95,29.89,10,10,10,10,3,20,0.00,0,,187
2013-4-13,79,64,48,48,44,42,80,54,28,30.03,29.93,29.83,10,10,10,17,6,21,0.00,0,,148
2013-4-14,82,67,51,62,55,48,83,64,45,29.82,29.71,29.61,10,10,10,20,10,25,0.00,0,,179
2013-4-15,87,78,68,66,64,62,84,66,48,29.82,29.75,29.68,10,10,9,23,15,29,0.00,4,,183
2013-4-16,89,81,72,68,65,63,84,64,43,29.94,29.88,29.81,10,10,9,24,13,31,0.00,4,,169
2013-4-17,87,80,73,70,67,63,84,65,46,29.94,29.84,29.73,10,10,10,29,18,36,0.00,7,,159
2013-4-18,75,60,45,66,51,33,93,75,56,30.13,29.85,29.64,10,8,1,28,15,37,1.16,7,Rain-Thunderstorm,313
2013-4-19,60,49,38,39,31,25,83,56,28,30.26,30.20,30.12,10,10,10,23,8,29,0.00,0,,317
2013-4-20,71,55,38,39,35,32,79,52,25,30.25,30.17,30.07,10,10,10,23,9,26,0.00,0,,159
2013-4-21,72,59,45,45,42,38,76,56,35,30.24,30.16,30.10,10,10,10,15,6,22,0.00,0,,119
2013-4-22,79,65,50,55,49,42,80,60,39,30.14,30.03,29.91,10,10,8,17,8,21,0.00,0,,150
2013-4-23,77,62,46,61,54,40,84,72,60,30.10,29.96,29.86,10,10,10,23,13,29,0.00,7,,216
2013-4-24,63,52,40,44,39,37,92,66,39,30.29,30.23,30.13,10,10,4,18,9,26,0.23,5,Rain,354
2013-4-25,74,62,50,46,42,37,83,55,27,30.35,30.28,30.20,10,10,10,15,7,21,T,3,,101
2013-4-26,77,68,58,63,55,41,73,61,49,30.21,30.14,30.03,10,10,3,17,10,22,T,7,Rain,149
2013-4-27,80,71,61,66,62,56,84,72,60,30.08,30.04,29.98,10,10,10,18,9,23,0.00,5,,220
2013-4-28,82,69,56,61,57,53,86,66,45,30.05,29.98,29.88,10,10,10,9,3,15,0.00,4,,62
2013-4-29,85,72,59,64,57,52,93,65,37,29.95,29.89,29.83,10,10,5,17,7,23,0.00,0,,167
2013-4-30,84,71,58,63,59,56,93,68,43,29.86,29.83,29.77,10,10,9,20,8,24,0.00,1,,154